sensor_id;sensor_type;location;lat;lon;timestamp;P1;durP1;ratioP1;P2;durP2;ratioP2
15502;SDS011;7853;52.186;5.948;2022-12-13T00:02:54;23.13;;;12.72;;
15502;SDS011;7853;52.186;5.948;2022-12-13T00:02:54;26.00;;;13.17;;
15502;SDS011;7853;52.186;5.948;2022-12-13T00:03:03;21.15;;;12.20;;
15502;SDS011;7853;52.186;5.948;2022-12-13T00:03:59;24.84;;;13.02;;
15502;SDS011;7853;52.186;5.948;2022-12-13T00:04:47;24.27;;;13.26;;
15502;SDS011;7853;52.186;5.948;2022-12-13T00:05:42;26.11;;;13.50;;
15502;SDS011;7853;52.186;5.948;2022-12-13T00:06:37;22.74;;;12.77;;
15502;SDS011;7853;52.186;5.948;2022-12-13T00:07:35;22.83;;;13.02;;
15502;SDS011;7853;52.186;5.948;2022-12-13T00:08:36;20.32;;;12.55;;
15502;SDS011;7853;52.186;5.948;2022-12-13T00:09:33;19.06;;;11.68;;
15502;SDS011;7853;52.186;5.948;2022-12-13T00:10:33;20.67;;;11.48;;
15502;SDS011;7853;52.186;5.948;2022-12-13T00:11:33;18.95;;;10.91;;
15502;SDS011;7853;52.186;5.948;2022-12-13T00:12:33;17.24;;;10.64;;
15502;SDS011;7853;52.186;5.948;2022-12-13T00:13:34;16.79;;;10.20;;
15502;SDS011;7853;52.186;5.948;2022-12-13T00:14:35;17.51;;;10.23;;
15502;SDS011;7853;52.186;5.948;2022-12-13T00:15:32;17.81;;;11.09;;
15502;SDS011;7853;52.186;5.948;2022-12-13T00:16:33;17.95;;;10.36;;
15502;SDS011;7853;52.186;5.948;2022-12-13T00:17:34;17.45;;;10.39;;
15502;SDS011;7853;52.186;5.948;2022-12-13T00:18:33;16.37;;;9.70;;
15502;SDS011;7853;52.186;5.948;2022-12-13T00:19:33;18.85;;;10.10;;
15502;SDS011;7853;52.186;5.948;2022-12-13T00:20:34;18.35;;;10.31;;
15502;SDS011;7853;52.186;5.948;2022-12-13T00:21:36;16.17;;;9.69;;
15502;SDS011;7853;52.186;5.948;2022-12-13T00:22:33;15.09;;;8.86;;
15502;SDS011;7853;52.186;5.948;2022-12-13T00:23:35;15.06;;;9.16;;
15502;SDS011;7853;52.186;5.948;2022-12-13T00:24:33;15.45;;;9.29;;
15502;SDS011;7853;52.186;5.948;2022-12-13T00:25:33;16.61;;;9.03;;
15502;SDS011;7853;52.186;5.948;2022-12-13T00:26:34;15.64;;;8.96;;
15502;SDS011;7853;52.186;5.948;2022-12-13T00:27:34;15.59;;;8.63;;
15502;SDS011;7853;52.186;5.948;2022-12-13T00:28:34;15.14;;;8.52;;
15502;SDS011;7853;52.186;5.948;2022-12-13T00:29:35;15.77;;;8.98;;
15502;SDS011;7853;52.186;5.948;2022-12-13T00:30:35;14.62;;;8.41;;
15502;SDS011;7853;52.186;5.948;2022-12-13T00:31:34;14.36;;;8.50;;
15502;SDS011;7853;52.186;5.948;2022-12-13T00:32:34;14.64;;;8.47;;
15502;SDS011;7853;52.186;5.948;2022-12-13T00:33:36;14.49;;;8.43;;
15502;SDS011;7853;52.186;5.948;2022-12-13T00:34:34;14.34;;;8.46;;
15502;SDS011;7853;52.186;5.948;2022-12-13T00:35:38;14.40;;;8.57;;
15502;SDS011;7853;52.186;5.948;2022-12-13T00:36:34;14.94;;;8.44;;
15502;SDS011;7853;52.186;5.948;2022-12-13T00:37:34;15.93;;;8.86;;
15502;SDS011;7853;52.186;5.948;2022-12-13T00:38:34;16.44;;;9.09;;
15502;SDS011;7853;52.186;5.948;2022-12-13T00:39:35;15.25;;;8.81;;
15502;SDS011;7853;52.186;5.948;2022-12-13T00:40:34;14.42;;;8.31;;
15502;SDS011;7853;52.186;5.948;2022-12-13T00:41:35;14.18;;;7.85;;
15502;SDS011;7853;52.186;5.948;2022-12-13T00:42:34;13.99;;;8.31;;
15502;SDS011;7853;52.186;5.948;2022-12-13T00:43:34;14.04;;;7.90;;
15502;SDS011;7853;52.186;5.948;2022-12-13T00:44:37;15.37;;;8.07;;
15502;SDS011;7853;52.186;5.948;2022-12-13T00:45:33;15.16;;;8.18;;
15502;SDS011;7853;52.186;5.948;2022-12-13T00:46:34;13.71;;;8.08;;
15502;SDS011;7853;52.186;5.948;2022-12-13T00:47:34;13.91;;;8.12;;
15502;SDS011;7853;52.186;5.948;2022-12-13T00:48:35;13.09;;;8.06;;
15502;SDS011;7853;52.186;5.948;2022-12-13T00:49:34;13.10;;;7.96;;
15502;SDS011;7853;52.186;5.948;2022-12-13T00:50:34;13.33;;;8.03;;
15502;SDS011;7853;52.186;5.948;2022-12-13T00:51:35;14.24;;;8.32;;
15502;SDS011;7853;52.186;5.948;2022-12-13T00:52:34;13.56;;;8.12;;
15502;SDS011;7853;52.186;5.948;2022-12-13T00:53:35;12.95;;;7.58;;
15502;SDS011;7853;52.186;5.948;2022-12-13T00:54:34;13.70;;;7.77;;
15502;SDS011;7853;52.186;5.948;2022-12-13T00:55:38;12.78;;;7.75;;
15502;SDS011;7853;52.186;5.948;2022-12-13T00:56:35;12.63;;;7.14;;
15502;SDS011;7853;52.186;5.948;2022-12-13T00:57:34;14.28;;;7.54;;
15502;SDS011;7853;52.186;5.948;2022-12-13T00:58:34;14.47;;;7.84;;
15502;SDS011;7853;52.186;5.948;2022-12-13T00:59:35;14.25;;;7.87;;
15502;SDS011;7853;52.186;5.948;2022-12-13T01:00:38;13.77;;;7.82;;
15502;SDS011;7853;52.186;5.948;2022-12-13T01:01:35;13.91;;;7.75;;
15502;SDS011;7853;52.186;5.948;2022-12-13T01:02:35;13.94;;;7.83;;
15502;SDS011;7853;52.186;5.948;2022-12-13T01:03:35;13.81;;;7.34;;
15502;SDS011;7853;52.186;5.948;2022-12-13T01:04:34;12.79;;;7.12;;
15502;SDS011;7853;52.186;5.948;2022-12-13T01:05:35;11.87;;;7.39;;
15502;SDS011;7853;52.186;5.948;2022-12-13T01:06:36;13.32;;;7.64;;
15502;SDS011;7853;52.186;5.948;2022-12-13T01:07:34;13.09;;;7.22;;
15502;SDS011;7853;52.186;5.948;2022-12-13T01:08:34;13.42;;;7.58;;
15502;SDS011;7853;52.186;5.948;2022-12-13T01:09:35;13.76;;;7.42;;
15502;SDS011;7853;52.186;5.948;2022-12-13T01:10:35;12.89;;;7.66;;
15502;SDS011;7853;52.186;5.948;2022-12-13T01:11:34;13.10;;;7.51;;
15502;SDS011;7853;52.186;5.948;2022-12-13T01:12:35;12.49;;;7.66;;
15502;SDS011;7853;52.186;5.948;2022-12-13T01:13:35;12.44;;;7.09;;
15502;SDS011;7853;52.186;5.948;2022-12-13T01:14:35;13.88;;;7.37;;
15502;SDS011;7853;52.186;5.948;2022-12-13T01:15:38;12.58;;;7.92;;
15502;SDS011;7853;52.186;5.948;2022-12-13T01:16:35;13.21;;;7.17;;
15502;SDS011;7853;52.186;5.948;2022-12-13T01:17:35;11.58;;;6.85;;
15502;SDS011;7853;52.186;5.948;2022-12-13T01:18:35;11.75;;;6.96;;
15502;SDS011;7853;52.186;5.948;2022-12-13T01:19:35;11.70;;;7.35;;
15502;SDS011;7853;52.186;5.948;2022-12-13T01:20:35;12.74;;;7.45;;
15502;SDS011;7853;52.186;5.948;2022-12-13T01:21:35;13.47;;;7.81;;
15502;SDS011;7853;52.186;5.948;2022-12-13T01:22:34;12.83;;;7.17;;
15502;SDS011;7853;52.186;5.948;2022-12-13T01:23:35;13.05;;;7.33;;
15502;SDS011;7853;52.186;5.948;2022-12-13T01:24:34;12.26;;;7.52;;
15502;SDS011;7853;52.186;5.948;2022-12-13T01:25:36;11.75;;;7.10;;
15502;SDS011;7853;52.186;5.948;2022-12-13T01:26:35;12.70;;;7.50;;
15502;SDS011;7853;52.186;5.948;2022-12-13T01:27:34;12.81;;;7.56;;
15502;SDS011;7853;52.186;5.948;2022-12-13T01:28:35;12.05;;;7.08;;
15502;SDS011;7853;52.186;5.948;2022-12-13T01:29:35;13.60;;;7.70;;
15502;SDS011;7853;52.186;5.948;2022-12-13T01:30:35;12.75;;;7.74;;
15502;SDS011;7853;52.186;5.948;2022-12-13T01:31:34;12.09;;;7.48;;
15502;SDS011;7853;52.186;5.948;2022-12-13T01:32:35;12.61;;;7.44;;
15502;SDS011;7853;52.186;5.948;2022-12-13T01:33:35;14.34;;;7.20;;
15502;SDS011;7853;52.186;5.948;2022-12-13T01:34:34;13.90;;;7.70;;
15502;SDS011;7853;52.186;5.948;2022-12-13T01:35:35;13.22;;;7.84;;
15502;SDS011;7853;52.186;5.948;2022-12-13T01:36:35;12.06;;;7.33;;
15502;SDS011;7853;52.186;5.948;2022-12-13T01:37:35;14.10;;;7.99;;
15502;SDS011;7853;52.186;5.948;2022-12-13T01:38:35;14.01;;;8.31;;
15502;SDS011;7853;52.186;5.948;2022-12-13T01:39:35;14.15;;;7.95;;
15502;SDS011;7853;52.186;5.948;2022-12-13T01:40:37;12.32;;;7.32;;
15502;SDS011;7853;52.186;5.948;2022-12-13T01:41:35;12.10;;;7.44;;
15502;SDS011;7853;52.186;5.948;2022-12-13T01:42:35;14.26;;;7.58;;
15502;SDS011;7853;52.186;5.948;2022-12-13T01:43:55;13.03;;;7.37;;
15502;SDS011;7853;52.186;5.948;2022-12-13T01:44:57;13.65;;;7.34;;
15502;SDS011;7853;52.186;5.948;2022-12-13T01:45:41;12.74;;;7.69;;
15502;SDS011;7853;52.186;5.948;2022-12-13T01:46:37;12.83;;;7.27;;
15502;SDS011;7853;52.186;5.948;2022-12-13T01:47:37;15.10;;;7.66;;
15502;SDS011;7853;52.186;5.948;2022-12-13T01:48:36;14.00;;;7.64;;
15502;SDS011;7853;52.186;5.948;2022-12-13T01:49:34;12.98;;;7.49;;
15502;SDS011;7853;52.186;5.948;2022-12-13T01:50:36;12.09;;;7.66;;
15502;SDS011;7853;52.186;5.948;2022-12-13T01:51:33;14.34;;;7.83;;
15502;SDS011;7853;52.186;5.948;2022-12-13T01:52:33;13.56;;;8.11;;
15502;SDS011;7853;52.186;5.948;2022-12-13T01:53:34;13.65;;;7.90;;
15502;SDS011;7853;52.186;5.948;2022-12-13T01:54:35;12.50;;;7.68;;
15502;SDS011;7853;52.186;5.948;2022-12-13T01:55:34;12.66;;;7.60;;
15502;SDS011;7853;52.186;5.948;2022-12-13T01:56:35;13.19;;;7.61;;
15502;SDS011;7853;52.186;5.948;2022-12-13T01:57:34;12.51;;;7.34;;
15502;SDS011;7853;52.186;5.948;2022-12-13T01:58:34;13.46;;;7.66;;
15502;SDS011;7853;52.186;5.948;2022-12-13T01:59:34;12.54;;;7.62;;
15502;SDS011;7853;52.186;5.948;2022-12-13T02:00:34;14.76;;;7.68;;
15502;SDS011;7853;52.186;5.948;2022-12-13T02:01:34;14.01;;;7.71;;
15502;SDS011;7853;52.186;5.948;2022-12-13T02:02:34;13.71;;;7.39;;
15502;SDS011;7853;52.186;5.948;2022-12-13T02:03:34;14.29;;;7.58;;
15502;SDS011;7853;52.186;5.948;2022-12-13T02:04:35;12.37;;;7.06;;
15502;SDS011;7853;52.186;5.948;2022-12-13T02:05:35;12.31;;;6.93;;
15502;SDS011;7853;52.186;5.948;2022-12-13T02:06:35;12.47;;;7.33;;
15502;SDS011;7853;52.186;5.948;2022-12-13T02:07:34;12.30;;;7.50;;
15502;SDS011;7853;52.186;5.948;2022-12-13T02:08:34;12.05;;;7.21;;
15502;SDS011;7853;52.186;5.948;2022-12-13T02:09:36;12.25;;;7.20;;
15502;SDS011;7853;52.186;5.948;2022-12-13T02:10:33;12.63;;;7.15;;
15502;SDS011;7853;52.186;5.948;2022-12-13T02:11:34;12.60;;;7.37;;
15502;SDS011;7853;52.186;5.948;2022-12-13T02:12:34;12.42;;;7.14;;
15502;SDS011;7853;52.186;5.948;2022-12-13T02:13:34;13.11;;;7.54;;
15502;SDS011;7853;52.186;5.948;2022-12-13T02:14:34;12.86;;;7.49;;
15502;SDS011;7853;52.186;5.948;2022-12-13T02:15:36;13.95;;;7.66;;
15502;SDS011;7853;52.186;5.948;2022-12-13T02:16:37;14.30;;;7.77;;
15502;SDS011;7853;52.186;5.948;2022-12-13T02:17:37;12.46;;;7.43;;
15502;SDS011;7853;52.186;5.948;2022-12-13T02:18:39;12.31;;;7.10;;
15502;SDS011;7853;52.186;5.948;2022-12-13T02:19:47;14.49;;;7.95;;
15502;SDS011;7853;52.186;5.948;2022-12-13T02:20:52;13.19;;;7.29;;
15502;SDS011;7853;52.186;5.948;2022-12-13T02:21:44;14.10;;;7.81;;
15502;SDS011;7853;52.186;5.948;2022-12-13T02:22:42;13.85;;;7.72;;
15502;SDS011;7853;52.186;5.948;2022-12-13T02:25:09;13.21;;;7.28;;
15502;SDS011;7853;52.186;5.948;2022-12-13T02:26:26;12.77;;;7.29;;
15502;SDS011;7853;52.186;5.948;2022-12-13T02:27:36;12.62;;;7.19;;
15502;SDS011;7853;52.186;5.948;2022-12-13T02:28:38;13.43;;;7.53;;
15502;SDS011;7853;52.186;5.948;2022-12-13T02:31:00;13.02;;;7.57;;
15502;SDS011;7853;52.186;5.948;2022-12-13T02:31:47;12.24;;;7.32;;
15502;SDS011;7853;52.186;5.948;2022-12-13T02:32:40;11.92;;;7.17;;
15502;SDS011;7853;52.186;5.948;2022-12-13T02:33:38;12.29;;;7.50;;
15502;SDS011;7853;52.186;5.948;2022-12-13T02:34:35;13.08;;;7.35;;
15502;SDS011;7853;52.186;5.948;2022-12-13T02:35:34;14.17;;;7.90;;
15502;SDS011;7853;52.186;5.948;2022-12-13T02:36:34;13.26;;;7.55;;
15502;SDS011;7853;52.186;5.948;2022-12-13T02:37:36;13.54;;;7.23;;
15502;SDS011;7853;52.186;5.948;2022-12-13T02:38:34;13.26;;;7.60;;
15502;SDS011;7853;52.186;5.948;2022-12-13T02:39:33;13.72;;;7.40;;
15502;SDS011;7853;52.186;5.948;2022-12-13T02:40:33;12.91;;;7.51;;
15502;SDS011;7853;52.186;5.948;2022-12-13T02:41:34;13.51;;;7.36;;
15502;SDS011;7853;52.186;5.948;2022-12-13T02:42:33;13.85;;;7.78;;
15502;SDS011;7853;52.186;5.948;2022-12-13T02:43:34;13.68;;;7.53;;
15502;SDS011;7853;52.186;5.948;2022-12-13T02:44:33;13.94;;;7.66;;
15502;SDS011;7853;52.186;5.948;2022-12-13T02:45:33;13.02;;;7.73;;
15502;SDS011;7853;52.186;5.948;2022-12-13T02:46:34;13.45;;;7.44;;
15502;SDS011;7853;52.186;5.948;2022-12-13T02:47:33;13.43;;;7.59;;
15502;SDS011;7853;52.186;5.948;2022-12-13T02:48:34;14.40;;;8.07;;
15502;SDS011;7853;52.186;5.948;2022-12-13T02:49:34;14.36;;;7.39;;
15502;SDS011;7853;52.186;5.948;2022-12-13T02:50:33;12.82;;;7.42;;
15502;SDS011;7853;52.186;5.948;2022-12-13T02:51:34;13.83;;;7.07;;
15502;SDS011;7853;52.186;5.948;2022-12-13T02:52:33;12.93;;;7.25;;
15502;SDS011;7853;52.186;5.948;2022-12-13T02:53:33;13.71;;;7.69;;
15502;SDS011;7853;52.186;5.948;2022-12-13T02:54:33;12.56;;;7.09;;
15502;SDS011;7853;52.186;5.948;2022-12-13T02:55:34;12.01;;;6.91;;
15502;SDS011;7853;52.186;5.948;2022-12-13T02:56:33;11.44;;;6.87;;
15502;SDS011;7853;52.186;5.948;2022-12-13T02:57:34;12.18;;;7.27;;
15502;SDS011;7853;52.186;5.948;2022-12-13T02:58:36;13.00;;;7.04;;
15502;SDS011;7853;52.186;5.948;2022-12-13T02:59:34;15.23;;;7.25;;
15502;SDS011;7853;52.186;5.948;2022-12-13T03:00:37;11.94;;;7.03;;
15502;SDS011;7853;52.186;5.948;2022-12-13T03:01:38;13.23;;;7.37;;
15502;SDS011;7853;52.186;5.948;2022-12-13T03:02:38;12.14;;;6.88;;
15502;SDS011;7853;52.186;5.948;2022-12-13T03:03:36;11.62;;;7.01;;
15502;SDS011;7853;52.186;5.948;2022-12-13T03:04:36;12.28;;;6.69;;
15502;SDS011;7853;52.186;5.948;2022-12-13T03:05:35;13.68;;;7.12;;
15502;SDS011;7853;52.186;5.948;2022-12-13T03:06:37;13.29;;;7.20;;
15502;SDS011;7853;52.186;5.948;2022-12-13T03:07:37;11.52;;;6.85;;
15502;SDS011;7853;52.186;5.948;2022-12-13T03:08:37;13.69;;;7.13;;
15502;SDS011;7853;52.186;5.948;2022-12-13T03:09:38;11.73;;;6.70;;
15502;SDS011;7853;52.186;5.948;2022-12-13T03:10:35;12.41;;;6.63;;
15502;SDS011;7853;52.186;5.948;2022-12-13T03:11:44;11.61;;;6.87;;
15502;SDS011;7853;52.186;5.948;2022-12-13T03:12:49;12.23;;;7.03;;
15502;SDS011;7853;52.186;5.948;2022-12-13T03:13:44;13.14;;;6.86;;
15502;SDS011;7853;52.186;5.948;2022-12-13T03:14:38;13.13;;;6.68;;
15502;SDS011;7853;52.186;5.948;2022-12-13T03:15:37;11.77;;;6.78;;
15502;SDS011;7853;52.186;5.948;2022-12-13T03:16:35;11.81;;;7.17;;
15502;SDS011;7853;52.186;5.948;2022-12-13T03:17:35;10.73;;;6.46;;
15502;SDS011;7853;52.186;5.948;2022-12-13T03:18:34;12.63;;;6.96;;
15502;SDS011;7853;52.186;5.948;2022-12-13T03:19:33;12.75;;;6.77;;
15502;SDS011;7853;52.186;5.948;2022-12-13T03:20:33;12.74;;;6.95;;
15502;SDS011;7853;52.186;5.948;2022-12-13T03:21:36;12.21;;;6.70;;
15502;SDS011;7853;52.186;5.948;2022-12-13T03:22:33;12.50;;;7.26;;
15502;SDS011;7853;52.186;5.948;2022-12-13T03:23:33;12.39;;;7.02;;
15502;SDS011;7853;52.186;5.948;2022-12-13T03:24:33;12.68;;;7.06;;
15502;SDS011;7853;52.186;5.948;2022-12-13T03:25:33;12.08;;;6.92;;
15502;SDS011;7853;52.186;5.948;2022-12-13T03:26:34;13.41;;;7.21;;
15502;SDS011;7853;52.186;5.948;2022-12-13T03:27:34;12.88;;;7.11;;
15502;SDS011;7853;52.186;5.948;2022-12-13T03:28:34;11.95;;;6.64;;
15502;SDS011;7853;52.186;5.948;2022-12-13T03:29:34;12.39;;;7.16;;
15502;SDS011;7853;52.186;5.948;2022-12-13T03:30:34;13.00;;;6.56;;
15502;SDS011;7853;52.186;5.948;2022-12-13T03:31:34;13.31;;;7.03;;
15502;SDS011;7853;52.186;5.948;2022-12-13T03:32:34;13.01;;;7.30;;
15502;SDS011;7853;52.186;5.948;2022-12-13T03:33:34;12.58;;;6.80;;
15502;SDS011;7853;52.186;5.948;2022-12-13T03:34:34;11.99;;;7.10;;
15502;SDS011;7853;52.186;5.948;2022-12-13T03:35:34;11.37;;;6.89;;
15502;SDS011;7853;52.186;5.948;2022-12-13T03:36:34;12.31;;;6.94;;
15502;SDS011;7853;52.186;5.948;2022-12-13T03:37:34;12.66;;;6.89;;
15502;SDS011;7853;52.186;5.948;2022-12-13T03:38:34;10.98;;;6.77;;
15502;SDS011;7853;52.186;5.948;2022-12-13T03:39:34;11.41;;;6.64;;
15502;SDS011;7853;52.186;5.948;2022-12-13T03:40:34;12.96;;;6.76;;
15502;SDS011;7853;52.186;5.948;2022-12-13T03:41:34;11.31;;;6.54;;
15502;SDS011;7853;52.186;5.948;2022-12-13T03:42:34;11.50;;;6.78;;
15502;SDS011;7853;52.186;5.948;2022-12-13T03:43:34;12.18;;;6.55;;
15502;SDS011;7853;52.186;5.948;2022-12-13T03:44:34;13.10;;;7.15;;
15502;SDS011;7853;52.186;5.948;2022-12-13T03:45:34;12.24;;;6.97;;
15502;SDS011;7853;52.186;5.948;2022-12-13T03:46:37;12.74;;;7.16;;
15502;SDS011;7853;52.186;5.948;2022-12-13T03:47:34;12.49;;;7.10;;
15502;SDS011;7853;52.186;5.948;2022-12-13T03:48:34;12.51;;;7.32;;
15502;SDS011;7853;52.186;5.948;2022-12-13T03:49:34;13.60;;;7.44;;
15502;SDS011;7853;52.186;5.948;2022-12-13T03:50:34;13.56;;;6.99;;
15502;SDS011;7853;52.186;5.948;2022-12-13T03:51:34;12.90;;;7.18;;
15502;SDS011;7853;52.186;5.948;2022-12-13T03:52:35;12.93;;;7.30;;
15502;SDS011;7853;52.186;5.948;2022-12-13T03:53:34;14.28;;;7.35;;
15502;SDS011;7853;52.186;5.948;2022-12-13T03:54:34;13.38;;;7.27;;
15502;SDS011;7853;52.186;5.948;2022-12-13T03:55:34;12.67;;;7.03;;
15502;SDS011;7853;52.186;5.948;2022-12-13T03:56:34;12.38;;;6.96;;
15502;SDS011;7853;52.186;5.948;2022-12-13T03:57:34;13.24;;;7.30;;
15502;SDS011;7853;52.186;5.948;2022-12-13T03:58:35;13.93;;;7.37;;
15502;SDS011;7853;52.186;5.948;2022-12-13T03:59:34;13.56;;;7.63;;
15502;SDS011;7853;52.186;5.948;2022-12-13T04:00:35;13.46;;;7.56;;
15502;SDS011;7853;52.186;5.948;2022-12-13T04:01:34;12.54;;;6.72;;
15502;SDS011;7853;52.186;5.948;2022-12-13T04:02:34;12.08;;;7.11;;
15502;SDS011;7853;52.186;5.948;2022-12-13T04:03:35;13.68;;;7.14;;
15502;SDS011;7853;52.186;5.948;2022-12-13T04:04:34;12.73;;;6.90;;
15502;SDS011;7853;52.186;5.948;2022-12-13T04:05:35;14.51;;;7.50;;
15502;SDS011;7853;52.186;5.948;2022-12-13T04:06:34;13.82;;;6.84;;
15502;SDS011;7853;52.186;5.948;2022-12-13T04:07:34;14.61;;;7.17;;
15502;SDS011;7853;52.186;5.948;2022-12-13T04:08:35;13.52;;;7.36;;
15502;SDS011;7853;52.186;5.948;2022-12-13T04:09:35;12.77;;;6.94;;
15502;SDS011;7853;52.186;5.948;2022-12-13T04:10:34;14.87;;;7.20;;
15502;SDS011;7853;52.186;5.948;2022-12-13T04:11:35;14.30;;;7.61;;
15502;SDS011;7853;52.186;5.948;2022-12-13T04:12:34;13.86;;;7.19;;
15502;SDS011;7853;52.186;5.948;2022-12-13T04:13:34;14.00;;;6.99;;
15502;SDS011;7853;52.186;5.948;2022-12-13T04:14:35;12.44;;;7.08;;
15502;SDS011;7853;52.186;5.948;2022-12-13T04:15:35;12.67;;;6.93;;
15502;SDS011;7853;52.186;5.948;2022-12-13T04:16:34;12.60;;;6.93;;
15502;SDS011;7853;52.186;5.948;2022-12-13T04:17:35;12.40;;;7.26;;
15502;SDS011;7853;52.186;5.948;2022-12-13T04:18:34;11.78;;;6.71;;
15502;SDS011;7853;52.186;5.948;2022-12-13T04:19:35;13.33;;;7.07;;
15502;SDS011;7853;52.186;5.948;2022-12-13T04:20:34;13.08;;;6.93;;
15502;SDS011;7853;52.186;5.948;2022-12-13T04:21:34;12.87;;;6.69;;
15502;SDS011;7853;52.186;5.948;2022-12-13T04:22:34;14.04;;;6.99;;
15502;SDS011;7853;52.186;5.948;2022-12-13T04:23:35;12.78;;;7.18;;
15502;SDS011;7853;52.186;5.948;2022-12-13T04:24:34;14.58;;;6.79;;
15502;SDS011;7853;52.186;5.948;2022-12-13T04:25:35;12.78;;;6.68;;
15502;SDS011;7853;52.186;5.948;2022-12-13T04:26:36;13.89;;;6.83;;
15502;SDS011;7853;52.186;5.948;2022-12-13T04:27:35;14.00;;;6.89;;
15502;SDS011;7853;52.186;5.948;2022-12-13T04:28:35;12.25;;;6.85;;
15502;SDS011;7853;52.186;5.948;2022-12-13T04:29:34;12.07;;;6.91;;
15502;SDS011;7853;52.186;5.948;2022-12-13T04:30:35;13.45;;;6.87;;
15502;SDS011;7853;52.186;5.948;2022-12-13T04:31:35;12.31;;;6.95;;
15502;SDS011;7853;52.186;5.948;2022-12-13T04:32:35;13.62;;;6.87;;
15502;SDS011;7853;52.186;5.948;2022-12-13T04:33:35;13.92;;;7.84;;
15502;SDS011;7853;52.186;5.948;2022-12-13T04:34:36;14.67;;;7.88;;
15502;SDS011;7853;52.186;5.948;2022-12-13T04:35:34;15.03;;;8.12;;
15502;SDS011;7853;52.186;5.948;2022-12-13T04:36:34;13.02;;;7.31;;
15502;SDS011;7853;52.186;5.948;2022-12-13T04:37:34;13.33;;;7.20;;
15502;SDS011;7853;52.186;5.948;2022-12-13T04:38:34;14.27;;;7.64;;
15502;SDS011;7853;52.186;5.948;2022-12-13T04:39:34;13.39;;;7.27;;
15502;SDS011;7853;52.186;5.948;2022-12-13T04:40:35;14.35;;;7.36;;
15502;SDS011;7853;52.186;5.948;2022-12-13T04:41:35;12.77;;;6.88;;
15502;SDS011;7853;52.186;5.948;2022-12-13T04:42:35;13.75;;;7.23;;
15502;SDS011;7853;52.186;5.948;2022-12-13T04:43:35;14.16;;;7.31;;
15502;SDS011;7853;52.186;5.948;2022-12-13T04:44:36;13.08;;;7.18;;
15502;SDS011;7853;52.186;5.948;2022-12-13T04:45:34;14.85;;;7.50;;
15502;SDS011;7853;52.186;5.948;2022-12-13T04:46:34;15.06;;;7.67;;
15502;SDS011;7853;52.186;5.948;2022-12-13T04:47:35;14.95;;;7.89;;
15502;SDS011;7853;52.186;5.948;2022-12-13T04:48:34;15.85;;;7.52;;
15502;SDS011;7853;52.186;5.948;2022-12-13T04:49:35;15.65;;;7.64;;
15502;SDS011;7853;52.186;5.948;2022-12-13T04:50:35;14.80;;;7.93;;
15502;SDS011;7853;52.186;5.948;2022-12-13T04:51:35;14.80;;;7.81;;
15502;SDS011;7853;52.186;5.948;2022-12-13T04:52:35;14.96;;;7.83;;
15502;SDS011;7853;52.186;5.948;2022-12-13T04:53:35;15.16;;;7.98;;
15502;SDS011;7853;52.186;5.948;2022-12-13T04:54:34;15.15;;;7.80;;
15502;SDS011;7853;52.186;5.948;2022-12-13T04:55:35;14.11;;;7.66;;
15502;SDS011;7853;52.186;5.948;2022-12-13T04:56:35;12.30;;;7.43;;
15502;SDS011;7853;52.186;5.948;2022-12-13T04:57:35;14.77;;;7.69;;
15502;SDS011;7853;52.186;5.948;2022-12-13T04:58:35;15.34;;;7.71;;
15502;SDS011;7853;52.186;5.948;2022-12-13T04:59:35;14.79;;;7.32;;
15502;SDS011;7853;52.186;5.948;2022-12-13T05:00:35;14.64;;;7.72;;
15502;SDS011;7853;52.186;5.948;2022-12-13T05:01:35;15.88;;;7.60;;
15502;SDS011;7853;52.186;5.948;2022-12-13T05:02:36;13.68;;;7.60;;
15502;SDS011;7853;52.186;5.948;2022-12-13T05:03:34;13.50;;;7.28;;
15502;SDS011;7853;52.186;5.948;2022-12-13T05:04:37;15.20;;;7.35;;
15502;SDS011;7853;52.186;5.948;2022-12-13T05:05:37;13.09;;;7.25;;
15502;SDS011;7853;52.186;5.948;2022-12-13T05:06:35;15.15;;;7.75;;
15502;SDS011;7853;52.186;5.948;2022-12-13T05:07:38;13.98;;;7.35;;
15502;SDS011;7853;52.186;5.948;2022-12-13T05:08:35;13.33;;;7.30;;
15502;SDS011;7853;52.186;5.948;2022-12-13T05:09:35;14.18;;;7.25;;
15502;SDS011;7853;52.186;5.948;2022-12-13T05:10:34;13.30;;;7.39;;
15502;SDS011;7853;52.186;5.948;2022-12-13T05:11:35;12.71;;;7.14;;
15502;SDS011;7853;52.186;5.948;2022-12-13T05:12:35;12.97;;;7.42;;
15502;SDS011;7853;52.186;5.948;2022-12-13T05:13:35;13.92;;;7.14;;
15502;SDS011;7853;52.186;5.948;2022-12-13T05:14:35;13.22;;;7.08;;
15502;SDS011;7853;52.186;5.948;2022-12-13T05:15:35;12.10;;;7.04;;
15502;SDS011;7853;52.186;5.948;2022-12-13T05:16:35;12.00;;;6.89;;
15502;SDS011;7853;52.186;5.948;2022-12-13T05:17:34;13.60;;;7.52;;
15502;SDS011;7853;52.186;5.948;2022-12-13T05:18:35;14.87;;;7.56;;
15502;SDS011;7853;52.186;5.948;2022-12-13T05:19:35;14.81;;;7.77;;
15502;SDS011;7853;52.186;5.948;2022-12-13T05:20:35;13.50;;;7.41;;
15502;SDS011;7853;52.186;5.948;2022-12-13T05:21:35;14.45;;;7.39;;
15502;SDS011;7853;52.186;5.948;2022-12-13T05:22:35;13.98;;;7.49;;
15502;SDS011;7853;52.186;5.948;2022-12-13T05:23:35;15.46;;;7.68;;
15502;SDS011;7853;52.186;5.948;2022-12-13T05:24:35;13.82;;;7.30;;
15502;SDS011;7853;52.186;5.948;2022-12-13T05:25:35;14.37;;;7.61;;
15502;SDS011;7853;52.186;5.948;2022-12-13T05:26:35;15.67;;;7.54;;
15502;SDS011;7853;52.186;5.948;2022-12-13T05:27:35;15.15;;;7.76;;
15502;SDS011;7853;52.186;5.948;2022-12-13T05:28:35;15.04;;;7.95;;
15502;SDS011;7853;52.186;5.948;2022-12-13T05:29:35;13.13;;;7.52;;
15502;SDS011;7853;52.186;5.948;2022-12-13T05:30:36;16.13;;;8.06;;
15502;SDS011;7853;52.186;5.948;2022-12-13T05:31:35;14.62;;;7.66;;
15502;SDS011;7853;52.186;5.948;2022-12-13T05:32:35;13.43;;;7.27;;
15502;SDS011;7853;52.186;5.948;2022-12-13T05:33:35;13.39;;;7.71;;
15502;SDS011;7853;52.186;5.948;2022-12-13T05:34:35;13.29;;;7.57;;
15502;SDS011;7853;52.186;5.948;2022-12-13T05:35:34;12.91;;;7.45;;
15502;SDS011;7853;52.186;5.948;2022-12-13T05:36:35;13.81;;;7.44;;
15502;SDS011;7853;52.186;5.948;2022-12-13T05:37:35;14.35;;;7.47;;
15502;SDS011;7853;52.186;5.948;2022-12-13T05:38:35;14.47;;;7.81;;
15502;SDS011;7853;52.186;5.948;2022-12-13T05:39:35;14.42;;;7.50;;
15502;SDS011;7853;52.186;5.948;2022-12-13T05:40:35;14.36;;;8.06;;
15502;SDS011;7853;52.186;5.948;2022-12-13T05:41:35;13.59;;;7.69;;
15502;SDS011;7853;52.186;5.948;2022-12-13T05:42:35;14.50;;;7.79;;
15502;SDS011;7853;52.186;5.948;2022-12-13T05:43:35;14.09;;;7.69;;
15502;SDS011;7853;52.186;5.948;2022-12-13T05:44:34;15.24;;;7.66;;
15502;SDS011;7853;52.186;5.948;2022-12-13T05:45:35;14.89;;;8.13;;
15502;SDS011;7853;52.186;5.948;2022-12-13T05:46:35;15.22;;;7.83;;
15502;SDS011;7853;52.186;5.948;2022-12-13T05:47:35;16.21;;;7.78;;
15502;SDS011;7853;52.186;5.948;2022-12-13T05:48:35;15.78;;;7.98;;
15502;SDS011;7853;52.186;5.948;2022-12-13T05:49:35;13.61;;;7.83;;
15502;SDS011;7853;52.186;5.948;2022-12-13T05:50:35;15.85;;;7.94;;
15502;SDS011;7853;52.186;5.948;2022-12-13T05:51:35;15.49;;;8.06;;
15502;SDS011;7853;52.186;5.948;2022-12-13T05:52:35;14.46;;;7.98;;
15502;SDS011;7853;52.186;5.948;2022-12-13T05:53:35;15.62;;;7.84;;
15502;SDS011;7853;52.186;5.948;2022-12-13T05:54:35;13.85;;;7.87;;
15502;SDS011;7853;52.186;5.948;2022-12-13T05:55:35;13.31;;;7.56;;
15502;SDS011;7853;52.186;5.948;2022-12-13T05:56:35;14.30;;;7.68;;
15502;SDS011;7853;52.186;5.948;2022-12-13T05:57:35;15.10;;;7.85;;
15502;SDS011;7853;52.186;5.948;2022-12-13T05:58:35;14.44;;;7.85;;
15502;SDS011;7853;52.186;5.948;2022-12-13T05:59:35;14.67;;;7.93;;
15502;SDS011;7853;52.186;5.948;2022-12-13T06:00:35;14.53;;;8.17;;
15502;SDS011;7853;52.186;5.948;2022-12-13T06:01:36;13.82;;;7.59;;
15502;SDS011;7853;52.186;5.948;2022-12-13T06:02:37;14.54;;;8.19;;
15502;SDS011;7853;52.186;5.948;2022-12-13T06:03:33;13.39;;;7.63;;
15502;SDS011;7853;52.186;5.948;2022-12-13T06:04:34;16.19;;;8.03;;